sensor_id;sensor_type;location;lat;lon;timestamp;pressure;altitude;pressure_sealevel;temperature;humidity
33795;BME280;51430;52.242;21.118;2023-01-28T00:01:13;101086.32;;;1.23;98.21
33795;BME280;51430;52.242;21.118;2023-01-28T00:05:09;101086.03;;;1.21;98.22
33795;BME280;51430;52.242;21.118;2023-01-28T00:09:36;101084.08;;;1.23;98.07
33795;BME280;51430;52.242;21.118;2023-01-28T00:13:33;101081.38;;;1.28;98.12
33795;BME280;51430;52.242;21.118;2023-01-28T00:17:33;101087.45;;;1.26;97.98
33795;BME280;51430;52.242;21.118;2023-01-28T00:21:09;101093.66;;;1.25;98.10
33795;BME280;51430;52.242;21.118;2023-01-28T00:25:07;101092.21;;;1.27;98.07
33795;BME280;51430;52.242;21.118;2023-01-28T00:29:03;101088.11;;;1.27;98.06
33795;BME280;51430;52.242;21.118;2023-01-28T00:33:00;101089.23;;;1.30;98.21
33795;BME280;51430;52.242;21.118;2023-01-28T00:36:57;101090.60;;;1.36;98.42
33795;BME280;51430;52.242;21.118;2023-01-28T02:29:42;101083.23;;;1.86;94.90
33795;BME280;51430;52.242;21.118;2023-01-28T02:34:05;101083.06;;;1.80;95.29
33795;BME280;51430;52.242;21.118;2023-01-28T03:02:05;101091.24;;;2.29;94.48
33795;BME280;51430;52.242;21.118;2023-01-28T03:33:15;101095.05;;;2.28;94.22
33795;BME280;51430;52.242;21.118;2023-01-28T03:36:32;101090.31;;;2.08;94.59
33795;BME280;51430;52.242;21.118;2023-01-28T03:40:58;101092.55;;;1.96;95.13
33795;BME280;51430;52.242;21.118;2023-01-28T03:45:00;101088.92;;;1.91;95.23
33795;BME280;51430;52.242;21.118;2023-01-28T03:48:57;101091.43;;;1.87;95.50
33795;BME280;51430;52.242;21.118;2023-01-28T03:58:34;101093.66;;;1.69;96.06
33795;BME280;51430;52.242;21.118;2023-01-28T04:19:22;101092.41;;;2.01;96.10
33795;BME280;51430;52.242;21.118;2023-01-28T04:22:18;101098.09;;;1.95;96.13
33795;BME280;51430;52.242;21.118;2023-01-28T04:26:32;101092.02;;;1.91;96.22
33795;BME280;51430;52.242;21.118;2023-01-28T04:29:59;101090.77;;;1.75;96.52
33795;BME280;51430;52.242;21.118;2023-01-28T04:59:31;101103.98;;;2.22;94.95
33795;BME280;51430;52.242;21.118;2023-01-28T05:02:30;101105.02;;;2.11;94.98
33795;BME280;51430;52.242;21.118;2023-01-28T05:06:27;101106.20;;;2.00;95.21
33795;BME280;51430;52.242;21.118;2023-01-28T05:10:30;101105.52;;;1.88;95.58
33795;BME280;51430;52.242;21.118;2023-01-28T05:14:04;101107.14;;;1.79;96.06
33795;BME280;51430;52.242;21.118;2023-01-28T05:18:08;101107.16;;;1.72;96.09
33795;BME280;51430;52.242;21.118;2023-01-28T05:21:40;101101.31;;;1.66;96.28
33795;BME280;51430;52.242;21.118;2023-01-28T05:25:37;101105.77;;;1.67;96.56
33795;BME280;51430;52.242;21.118;2023-01-28T05:29:37;101110.27;;;1.65;96.64
33795;BME280;51430;52.242;21.118;2023-01-28T05:33:32;101114.85;;;1.61;96.89
33795;BME280;51430;52.242;21.118;2023-01-28T05:37:34;101114.92;;;1.65;96.91
33795;BME280;51430;52.242;21.118;2023-01-28T05:41:49;101117.01;;;1.64;97.02
33795;BME280;51430;52.242;21.118;2023-01-28T05:45:07;101120.38;;;1.59;96.96
33795;BME280;51430;52.242;21.118;2023-01-28T05:59:57;101122.95;;;1.97;96.25
33795;BME280;51430;52.242;21.118;2023-01-28T06:07:48;101120.20;;;1.79;96.69
33795;BME280;51430;52.242;21.118;2023-01-28T06:39:21;101149.16;;;2.00;95.67
33795;BME280;51430;52.242;21.118;2023-01-28T06:43:35;101153.23;;;1.96;96.20
33795;BME280;51430;52.242;21.118;2023-01-28T06:46:59;101156.77;;;1.87;96.51
33795;BME280;51430;52.242;21.118;2023-01-28T06:50:54;101159.68;;;1.81;96.98
33795;BME280;51430;52.242;21.118;2023-01-28T06:54:13;101153.17;;;1.73;97.24
33795;BME280;51430;52.242;21.118;2023-01-28T07:14:14;101170.17;;;2.11;97.14
33795;BME280;51430;52.242;21.118;2023-01-28T07:17:00;101172.65;;;2.09;97.18
33795;BME280;51430;52.242;21.118;2023-01-28T07:19:46;101170.14;;;2.18;97.03
33795;BME280;51430;52.242;21.118;2023-01-28T07:22:32;101173.52;;;2.21;96.90
33795;BME280;51430;52.242;21.118;2023-01-28T07:25:18;101169.17;;;2.23;96.77
33795;BME280;51430;52.242;21.118;2023-01-28T07:31:30;101174.21;;;2.21;96.79
33795;BME280;51430;52.242;21.118;2023-01-28T08:03:48;101181.52;;;2.53;96.06
33795;BME280;51430;52.242;21.118;2023-01-28T08:17:13;101180.09;;;2.55;95.67
33795;BME280;51430;52.242;21.118;2023-01-28T08:30:43;101179.00;;;2.15;96.89
33795;BME280;51430;52.242;21.118;2023-01-28T08:33:30;101185.97;;;2.06;97.05
33795;BME280;51430;52.242;21.118;2023-01-28T08:36:18;101181.67;;;2.12;96.95
33795;BME280;51430;52.242;21.118;2023-01-28T08:39:04;101183.36;;;2.20;96.78
33795;BME280;51430;52.242;21.118;2023-01-28T08:41:52;101179.23;;;2.26;96.75
33795;BME280;51430;52.242;21.118;2023-01-28T08:44:39;101181.83;;;2.31;96.64
33795;BME280;51430;52.242;21.118;2023-01-28T08:51:05;101181.91;;;2.28;96.44
33795;BME280;51430;52.242;21.118;2023-01-28T08:53:52;101180.34;;;2.35;96.53
33795;BME280;51430;52.242;21.118;2023-01-28T08:56:39;101183.68;;;2.38;96.41
33795;BME280;51430;52.242;21.118;2023-01-28T09:10:19;101190.81;;;2.42;96.30
33795;BME280;51430;52.242;21.118;2023-01-28T09:13:12;101201.87;;;2.28;96.57
33795;BME280;51430;52.242;21.118;2023-01-28T09:15:59;101201.70;;;2.34;96.63
33795;BME280;51430;52.242;21.118;2023-01-28T09:18:46;101204.79;;;2.34;96.41
33795;BME280;51430;52.242;21.118;2023-01-28T09:21:33;101208.56;;;2.34;96.34
33795;BME280;51430;52.242;21.118;2023-01-28T09:24:29;101210.81;;;2.28;96.36
33795;BME280;51430;52.242;21.118;2023-01-28T09:33:40;101213.05;;;2.03;97.48
33795;BME280;51430;52.242;21.118;2023-01-28T09:37:23;101211.98;;;1.98;97.85
33795;BME280;51430;52.242;21.118;2023-01-28T09:42:20;101215.34;;;1.89;98.20
33795;BME280;51430;52.242;21.118;2023-01-28T10:07:41;101200.79;;;2.36;97.82
33795;BME280;51430;52.242;21.118;2023-01-28T10:12:12;101201.36;;;2.34;97.71
33795;BME280;51430;52.242;21.118;2023-01-28T10:16:28;101196.10;;;2.25;97.83
33795;BME280;51430;52.242;21.118;2023-01-28T10:31:07;101193.88;;;2.54;96.73
33795;BME280;51430;52.242;21.118;2023-01-28T10:34:42;101191.26;;;2.38;96.84
33795;BME280;51430;52.242;21.118;2023-01-28T10:38:27;101189.52;;;2.21;97.19
33795;BME280;51430;52.242;21.118;2023-01-28T10:52:53;101183.18;;;2.44;96.83
33795;BME280;51430;52.242;21.118;2023-01-28T11:07:02;101180.57;;;2.61;96.67
33795;BME280;51430;52.242;21.118;2023-01-28T11:20:54;101173.32;;;2.68;95.85
33795;BME280;51430;52.242;21.118;2023-01-28T11:28:46;101163.06;;;2.25;96.85
33795;BME280;51430;52.242;21.118;2023-01-28T11:32:41;101163.53;;;2.15;97.00
33795;BME280;51430;52.242;21.118;2023-01-28T11:36:37;101157.51;;;2.15;97.30
33795;BME280;51430;52.242;21.118;2023-01-28T11:40:34;101155.73;;;2.11;97.40
33795;BME280;51430;52.242;21.118;2023-01-28T11:44:32;101154.20;;;2.16;97.70
33795;BME280;51430;52.242;21.118;2023-01-28T11:52:21;101151.66;;;2.09;98.10
33795;BME280;51430;52.242;21.118;2023-01-28T12:04:46;101149.77;;;2.09;98.11
33795;BME280;51430;52.242;21.118;2023-01-28T12:09:19;101147.77;;;2.19;98.45
33795;BME280;51430;52.242;21.118;2023-01-28T12:21:06;101143.71;;;2.22;98.39
33795;BME280;51430;52.242;21.118;2023-01-28T12:25:46;101143.67;;;2.24;98.22
33795;BME280;51430;52.242;21.118;2023-01-28T12:43:13;101143.94;;;2.21;98.13
33795;BME280;51430;52.242;21.118;2023-01-28T12:46:05;101141.13;;;2.29;98.06
33795;BME280;51430;52.242;21.118;2023-01-28T12:49:01;101145.02;;;2.42;97.35
33795;BME280;51430;52.242;21.118;2023-01-28T12:52:56;101142.35;;;2.45;96.88
33795;BME280;51430;52.242;21.118;2023-01-28T12:55:38;101143.17;;;2.41;96.52
33795;BME280;51430;52.242;21.118;2023-01-28T12:58:36;101149.69;;;2.47;96.50
33795;BME280;51430;52.242;21.118;2023-01-28T13:05:24;101157.74;;;2.54;95.98
33795;BME280;51430;52.242;21.118;2023-01-28T13:08:18;101152.09;;;2.59;95.67
33795;BME280;51430;52.242;21.118;2023-01-28T13:11:47;101147.08;;;2.60;95.52
33795;BME280;51430;52.242;21.118;2023-01-28T13:14:59;101146.23;;;2.42;95.83
33795;BME280;51430;52.242;21.118;2023-01-28T13:22:33;101146.83;;;2.23;96.22
33795;BME280;51430;52.242;21.118;2023-01-28T13:37:31;101147.41;;;2.49;95.47
33795;BME280;51430;52.242;21.118;2023-01-28T13:40:34;101155.44;;;2.33;95.38
33795;BME280;51430;52.242;21.118;2023-01-28T14:30:21;101149.20;;;2.29;94.21
33795;BME280;51430;52.242;21.118;2023-01-28T14:33:11;101150.13;;;2.15;94.56
33795;BME280;51430;52.242;21.118;2023-01-28T14:40:38;101156.40;;;2.00;94.99
33795;BME280;51430;52.242;21.118;2023-01-28T14:48:19;101159.70;;;1.80;95.77
33795;BME280;51430;52.242;21.118;2023-01-28T14:57:23;101157.23;;;1.95;95.87
33795;BME280;51430;52.242;21.118;2023-01-28T15:00:32;101152.66;;;1.92;95.61
33795;BME280;51430;52.242;21.118;2023-01-28T15:04:00;101153.91;;;1.85;95.53
33795;BME280;51430;52.242;21.118;2023-01-28T15:07:56;101156.14;;;1.78;96.10
33795;BME280;51430;52.242;21.118;2023-01-28T15:11:53;101163.30;;;1.73;96.34
33795;BME280;51430;52.242;21.118;2023-01-28T15:14:42;101165.70;;;1.68;96.59
33795;BME280;51430;52.242;21.118;2023-01-28T15:17:33;101167.96;;;1.80;96.45
33795;BME280;51430;52.242;21.118;2023-01-28T15:20:22;101167.58;;;1.87;96.13
33795;BME280;51430;52.242;21.118;2023-01-28T15:23:13;101169.08;;;1.89;96.12
33795;BME280;51430;52.242;21.118;2023-01-28T15:26:14;101172.77;;;1.86;96.06
33795;BME280;51430;52.242;21.118;2023-01-28T15:29:02;101177.85;;;1.89;96.12
33795;BME280;51430;52.242;21.118;2023-01-28T15:31:48;101178.83;;;1.91;96.08
33795;BME280;51430;52.242;21.118;2023-01-28T15:46:33;101180.30;;;2.05;95.61
33795;BME280;51430;52.242;21.118;2023-01-28T15:49:30;101183.11;;;1.98;95.75
33795;BME280;51430;52.242;21.118;2023-01-28T15:52:19;101186.88;;;2.04;95.69
33795;BME280;51430;52.242;21.118;2023-01-28T15:55:19;101186.24;;;2.02;95.32
33795;BME280;51430;52.242;21.118;2023-01-28T15:58:17;101185.23;;;1.90;95.19
33795;BME280;51430;52.242;21.118;2023-01-28T16:04:23;101181.52;;;1.81;95.24
33795;BME280;51430;52.242;21.118;2023-01-28T16:07:10;101179.42;;;1.81;95.37
33795;BME280;51430;52.242;21.118;2023-01-28T16:09:59;101186.65;;;1.88;95.46
33795;BME280;51430;52.242;21.118;2023-01-28T16:12:48;101187.63;;;1.83;95.22
33795;BME280;51430;52.242;21.118;2023-01-28T16:15:44;101191.71;;;1.78;95.23
33795;BME280;51430;52.242;21.118;2023-01-28T16:18:52;101193.72;;;1.74;95.47
33795;BME280;51430;52.242;21.118;2023-01-28T16:21:44;101197.65;;;1.68;95.51
33795;BME280;51430;52.242;21.118;2023-01-28T16:24:34;101194.21;;;1.75;95.31
33795;BME280;51430;52.242;21.118;2023-01-28T16:27:23;101195.70;;;1.77;95.22
33795;BME280;51430;52.242;21.118;2023-01-28T16:30:10;101198.91;;;1.79;94.96
33795;BME280;51430;52.242;21.118;2023-01-28T16:32:57;101193.58;;;1.79;94.78
33795;BME280;51430;52.242;21.118;2023-01-28T16:35:43;101187.10;;;1.77;94.45
33795;BME280;51430;52.242;21.118;2023-01-28T16:45:26;101199.45;;;1.65;94.64
33795;BME280;51430;52.242;21.118;2023-01-28T16:49:12;101192.14;;;1.56;94.77
33795;BME280;51430;52.242;21.118;2023-01-28T16:51:59;101197.36;;;1.53;94.74
33795;BME280;51430;52.242;21.118;2023-01-28T16:54:55;101201.16;;;1.58;94.65
33795;BME280;51430;52.242;21.118;2023-01-28T16:57:42;101199.60;;;1.66;94.28
33795;BME280;51430;52.242;21.118;2023-01-28T17:00:28;101199.92;;;1.67;93.77
33795;BME280;51430;52.242;21.118;2023-01-28T17:04:04;101202.46;;;1.61;93.38
33795;BME280;51430;52.242;21.118;2023-01-28T17:06:57;101197.58;;;1.51;93.62
33795;BME280;51430;52.242;21.118;2023-01-28T17:09:46;101194.60;;;1.60;93.48
33795;BME280;51430;52.242;21.118;2023-01-28T17:12:33;101199.67;;;1.63;92.78
33795;BME280;51430;52.242;21.118;2023-01-28T17:15:22;101202.37;;;1.59;92.39
33795;BME280;51430;52.242;21.118;2023-01-28T17:18:19;101197.61;;;1.56;92.05
33795;BME280;51430;52.242;21.118;2023-01-28T17:22:38;101190.02;;;1.51;92.31
33795;BME280;51430;52.242;21.118;2023-01-28T17:25:52;101191.61;;;1.42;92.56
33795;BME280;51430;52.242;21.118;2023-01-28T17:29:54;101196.53;;;1.38;92.76
33795;BME280;51430;52.242;21.118;2023-01-28T17:33:54;101193.69;;;1.35;92.63
33795;BME280;51430;52.242;21.118;2023-01-28T17:37:53;101199.89;;;1.34;92.54
33795;BME280;51430;52.242;21.118;2023-01-28T17:41:48;101210.14;;;1.29;92.39
33795;BME280;51430;52.242;21.118;2023-01-28T17:46:10;101208.26;;;1.29;92.13
33795;BME280;51430;52.242;21.118;2023-01-28T17:49:28;101205.45;;;1.24;92.14
33795;BME280;51430;52.242;21.118;2023-01-28T17:53:04;101208.45;;;1.21;92.03
33795;BME280;51430;52.242;21.118;2023-01-28T17:57:04;101214.27;;;1.22;91.65
33795;BME280;51430;52.242;21.118;2023-01-28T18:00:44;101215.02;;;1.20;91.59
33795;BME280;51430;52.242;21.118;2023-01-28T18:04:21;101211.84;;;1.16;91.44
33795;BME280;51430;52.242;21.118;2023-01-28T18:07:53;101204.95;;;1.10;91.54
33795;BME280;51430;52.242;21.118;2023-01-28T18:22:17;101225.23;;;1.58;89.95
33795;BME280;51430;52.242;21.118;2023-01-28T18:25:04;101228.27;;;1.53;89.75
33795;BME280;51430;52.242;21.118;2023-01-28T18:30:45;101241.93;;;1.64;89.36
33795;BME280;51430;52.242;21.118;2023-01-28T18:35:41;101250.45;;;1.59;88.42
33795;BME280;51430;52.242;21.118;2023-01-28T18:38:54;101253.15;;;1.40;88.43
33795;BME280;51430;52.242;21.118;2023-01-28T18:42:50;101245.37;;;1.29;88.55
33795;BME280;51430;52.242;21.118;2023-01-28T18:57:14;101237.84;;;1.62;86.31
33795;BME280;51430;52.242;21.118;2023-01-28T19:00:01;101233.30;;;1.59;86.36
33795;BME280;51430;52.242;21.118;2023-01-28T19:02:49;101231.38;;;1.60;85.23
33795;BME280;51430;52.242;21.118;2023-01-28T19:05:37;101232.84;;;1.56;84.59
33795;BME280;51430;52.242;21.118;2023-01-28T19:08:25;101232.70;;;1.48;84.25
33795;BME280;51430;52.242;21.118;2023-01-28T19:11:12;101229.71;;;1.37;83.91
33795;BME280;51430;52.242;21.118;2023-01-28T19:13:59;101230.82;;;1.41;83.92
33795;BME280;51430;52.242;21.118;2023-01-28T19:16:46;101226.55;;;1.46;83.66
33795;BME280;51430;52.242;21.118;2023-01-28T19:19:33;101232.30;;;1.50;83.77
33795;BME280;51430;52.242;21.118;2023-01-28T19:22:20;101235.53;;;1.52;83.90
33795;BME280;51430;52.242;21.118;2023-01-28T19:25:35;101235.62;;;1.48;83.76
33795;BME280;51430;52.242;21.118;2023-01-28T19:28:31;101235.67;;;1.46;83.70
33795;BME280;51430;52.242;21.118;2023-01-28T19:31:19;101233.16;;;1.50;83.94
33795;BME280;51430;52.242;21.118;2023-01-28T19:34:07;101238.42;;;1.53;83.65
33795;BME280;51430;52.242;21.118;2023-01-28T19:36:55;101236.68;;;1.54;83.62
33795;BME280;51430;52.242;21.118;2023-01-28T19:39:42;101232.13;;;1.50;83.89
33795;BME280;51430;52.242;21.118;2023-01-28T19:42:29;101238.80;;;1.45;83.77
33795;BME280;51430;52.242;21.118;2023-01-28T19:45:16;101244.21;;;1.47;84.11
33795;BME280;51430;52.242;21.118;2023-01-28T19:48:03;101248.70;;;1.47;84.02
33795;BME280;51430;52.242;21.118;2023-01-28T19:50:50;101251.80;;;1.47;83.88
33795;BME280;51430;52.242;21.118;2023-01-28T19:53:38;101251.00;;;1.44;83.89
33795;BME280;51430;52.242;21.118;2023-01-28T19:56:25;101252.39;;;1.44;83.75
33795;BME280;51430;52.242;21.118;2023-01-28T19:59:12;101252.64;;;1.47;83.64
33795;BME280;51430;52.242;21.118;2023-01-28T20:02:00;101255.42;;;1.46;83.79
33795;BME280;51430;52.242;21.118;2023-01-28T20:04:46;101258.52;;;1.46;83.79
33795;BME280;51430;52.242;21.118;2023-01-28T20:07:45;101261.52;;;1.42;81.97
33795;BME280;51430;52.242;21.118;2023-01-28T20:10:35;101268.52;;;1.37;80.39
33795;BME280;51430;52.242;21.118;2023-01-28T20:13:21;101265.84;;;1.34;79.38
33795;BME280;51430;52.242;21.118;2023-01-28T20:16:16;101258.27;;;1.35;79.46
33795;BME280;51430;52.242;21.118;2023-01-28T20:19:06;101257.17;;;1.37;79.40
33795;BME280;51430;52.242;21.118;2023-01-28T20:21:53;101259.33;;;1.40;78.77
33795;BME280;51430;52.242;21.118;2023-01-28T20:24:40;101261.94;;;1.39;78.99
33795;BME280;51430;52.242;21.118;2023-01-28T20:27:27;101261.17;;;1.35;79.30
33795;BME280;51430;52.242;21.118;2023-01-28T20:30:14;101260.96;;;1.37;79.27
33795;BME280;51430;52.242;21.118;2023-01-28T20:33:01;101261.89;;;1.41;78.99
33795;BME280;51430;52.242;21.118;2023-01-28T20:35:48;101261.77;;;1.32;76.90
33795;BME280;51430;52.242;21.118;2023-01-28T20:38:44;101268.86;;;1.30;77.76
33795;BME280;51430;52.242;21.118;2023-01-28T20:41:31;101275.48;;;1.33;77.87
33795;BME280;51430;52.242;21.118;2023-01-28T20:44:18;101269.00;;;1.31;77.85
33795;BME280;51430;52.242;21.118;2023-01-28T20:47:04;101273.63;;;1.25;76.07
33795;BME280;51430;52.242;21.118;2023-01-28T20:49:51;101279.83;;;1.17;76.00
33795;BME280;51430;52.242;21.118;2023-01-28T20:52:38;101281.89;;;1.16;76.91
33795;BME280;51430;52.242;21.118;2023-01-28T20:55:25;101279.55;;;1.14;76.87
33795;BME280;51430;52.242;21.118;2023-01-28T20:58:13;101278.86;;;1.13;76.26
33795;BME280;51430;52.242;21.118;2023-01-28T21:01:01;101279.09;;;1.11;76.32
33795;BME280;51430;52.242;21.118;2023-01-28T21:03:48;101283.81;;;1.07;76.47
33795;BME280;51430;52.242;21.118;2023-01-28T21:06:35;101287.84;;;1.11;76.89
33795;BME280;51430;52.242;21.118;2023-01-28T21:09:21;101289.10;;;1.16;76.90
33795;BME280;51430;52.242;21.118;2023-01-28T21:12:10;101293.63;;;1.13;76.99
33795;BME280;51430;52.242;21.118;2023-01-28T21:14:57;101287.29;;;1.05;77.02
33795;BME280;51430;52.242;21.118;2023-01-28T21:17:44;101289.33;;;1.06;77.50
33795;BME280;51430;52.242;21.118;2023-01-28T21:20:32;101285.45;;;1.11;77.74
33795;BME280;51430;52.242;21.118;2023-01-28T21:23:21;101291.52;;;1.09;77.90
33795;BME280;51430;52.242;21.118;2023-01-28T21:26:12;101290.27;;;1.10;78.24
33795;BME280;51430;52.242;21.118;2023-01-28T21:29:01;101281.99;;;1.12;78.20
33795;BME280;51430;52.242;21.118;2023-01-28T21:31:49;101276.42;;;1.15;77.18
33795;BME280;51430;52.242;21.118;2023-01-28T21:34:36;101266.81;;;1.15;76.87
33795;BME280;51430;52.242;21.118;2023-01-28T21:37:24;101270.48;;;1.12;76.28
33795;BME280;51430;52.242;21.118;2023-01-28T21:40:14;101262.11;;;1.10;75.42
33795;BME280;51430;52.242;21.118;2023-01-28T21:43:01;101261.33;;;1.07;75.36
33795;BME280;51430;52.242;21.118;2023-01-28T21:45:54;101260.84;;;1.06;75.64
33795;BME280;51430;52.242;21.118;2023-01-28T21:48:41;101264.60;;;1.06;76.34
33795;BME280;51430;52.242;21.118;2023-01-28T21:51:29;101264.70;;;1.09;76.53
33795;BME280;51430;52.242;21.118;2023-01-28T21:54:31;101259.77;;;1.07;76.38
33795;BME280;51430;52.242;21.118;2023-01-28T21:57:18;101244.46;;;1.08;76.62
33795;BME280;51430;52.242;21.118;2023-01-28T22:00:04;101252.54;;;1.09;75.13
33795;BME280;51430;52.242;21.118;2023-01-28T22:02:51;101253.73;;;1.01;75.50
33795;BME280;51430;52.242;21.118;2023-01-28T22:05:38;101254.38;;;1.03;75.51
33795;BME280;51430;52.242;21.118;2023-01-28T22:08:24;101251.77;;;1.04;75.41
33795;BME280;51430;52.242;21.118;2023-01-28T22:11:11;101243.55;;;1.03;74.77
33795;BME280;51430;52.242;21.118;2023-01-28T22:13:58;101236.46;;;0.90;73.87
33795;BME280;51430;52.242;21.118;2023-01-28T22:16:47;101236.86;;;0.80;74.22
33795;BME280;51430;52.242;21.118;2023-01-28T22:19:34;101225.34;;;0.81;74.53
33795;BME280;51430;52.242;21.118;2023-01-28T22:22:20;101221.41;;;0.80;74.62
33795;BME280;51430;52.242;21.118;2023-01-28T22:25:07;101228.80;;;0.79;74.41
33795;BME280;51430;52.242;21.118;2023-01-28T22:27:54;101226.89;;;0.81;74.23
33795;BME280;51430;52.242;21.118;2023-01-28T22:30:40;101227.64;;;0.78;74.65
33795;BME280;51430;52.242;21.118;2023-01-28T22:33:26;101226.65;;;0.76;75.03
33795;BME280;51430;52.242;21.118;2023-01-28T22:36:14;101224.55;;;0.70;74.61
33795;BME280;51430;52.242;21.118;2023-01-28T22:39:03;101228.30;;;0.71;74.23
33795;BME280;51430;52.242;21.118;2023-01-28T22:41:50;101237.48;;;0.67;73.82
33795;BME280;51430;52.242;21.118;2023-01-28T22:44:36;101238.70;;;0.66;74.24
33795;BME280;51430;52.242;21.118;2023-01-28T22:47:23;101236.08;;;0.69;75.60
33795;BME280;51430;52.242;21.118;2023-01-28T22:50:10;101237.25;;;0.70;75.85
33795;BME280;51430;52.242;21.118;2023-01-28T22:52:56;101244.09;;;0.71;76.10
33795;BME280;51430;52.242;21.118;2023-01-28T22:55:43;101251.38;;;0.67;76.37
33795;BME280;51430;52.242;21.118;2023-01-28T22:58:30;101255.45;;;0.62;76.05
33795;BME280;51430;52.242;21.118;2023-01-28T23:01:17;101258.12;;;0.65;75.81
33795;BME280;51430;52.242;21.118;2023-01-28T23:04:04;101266.29;;;0.60;75.50
33795;BME280;51430;52.242;21.118;2023-01-28T23:06:51;101278.09;;;0.61;74.55
33795;BME280;51430;52.242;21.118;2023-01-28T23:09:38;101276.02;;;0.63;74.55
33795;BME280;51430;52.242;21.118;2023-01-28T23:12:24;101281.05;;;0.60;74.37
33795;BME280;51430;52.242;21.118;2023-01-28T23:15:12;101283.92;;;0.53;74.32
33795;BME280;51430;52.242;21.118;2023-01-28T23:18:19;101283.27;;;0.51;74.70
33795;BME280;51430;52.242;21.118;2023-01-28T23:21:26;101279.40;;;0.48;75.14
33795;BME280;51430;52.242;21.118;2023-01-28T23:24:32;101275.95;;;0.49;74.55
33795;BME280;51430;52.242;21.118;2023-01-28T23:27:18;101272.34;;;0.41;74.78
33795;BME280;51430;52.242;21.118;2023-01-28T23:30:06;101266.83;;;0.42;75.25
33795;BME280;51430;52.242;21.118;2023-01-28T23:32:57;101263.05;;;0.51;74.72
33795;BME280;51430;52.242;21.118;2023-01-28T23:35:44;101255.84;;;0.51;74.45
33795;BME280;51430;52.242;21.118;2023-01-28T23:38:31;101251.70;;;0.52;73.88
33795;BME280;51430;52.242;21.118;2023-01-28T23:41:17;101257.19;;;0.52;73.72
33795;BME280;51430;52.242;21.118;2023-01-28T23:44:04;101252.23;;;0.52;74.06
33795;BME280;51430;52.242;21.118;2023-01-28T23:46:53;101251.02;;;0.52;74.23
33795;BME280;51430;52.242;21.118;2023-01-28T23:49:40;101246.55;;;0.52;73.85
33795;BME280;51430;52.242;21.118;2023-01-28T23:52:29;101239.57;;;0.50;74.08
33795;BME280;51430;52.242;21.118;2023-01-28T23:55:16;101244.42;;;0.48;74.70
33795;BME280;51430;52.242;21.118;2023-01-28T23:58:02;101243.36;;;0.49;75.25
